Time;durP1;ratioP1;P1;durP2;ratioP2;P2;SDS_P1;SDS_P2;PMS_P1;PMS_P2;Temp;Humidity;BMP_temperature;BMP_pressure;BME280_temperature;BME280_humidity;BME280_pressure;Samples;Min_cycle;Max_cycle;Signal;HPM_P1;HPM_P2
2021/07/09 00:01:53;;;;;;;16.87;15.87;;;17.50;92.90;;;;;;5109560;27;20473;-70
2021/07/09 00:04:21;;;;;;;17.73;16.83;;;17.60;92.30;;;;;;5107597;27;20541;-70
2021/07/09 00:06:48;;;;;;;16.90;16.10;;;17.60;91.80;;;;;;5108943;28;20462;-71
2021/07/09 00:09:15;;;;;;;17.20;16.33;;;17.60;91.70;;;;;;5111438;27;20456;-70
2021/07/09 00:11:44;;;;;;;17.73;16.83;;;17.70;91.60;;;;;;5108538;27;21173;-70
2021/07/09 00:14:14;;;;;;;18.40;17.20;;;17.70;91.50;;;;;;5105122;27;20807;-70
2021/07/09 00:16:44;;;;;;;17.43;16.30;;;17.70;92.00;;;;;;5108005;27;21011;-70
2021/07/09 00:19:11;;;;;;;17.33;16.43;;;17.70;91.90;;;;;;5108479;27;20500;-70
2021/07/09 00:21:39;;;;;;;17.47;16.50;;;17.70;91.90;;;;;;5110727;27;20455;-71
2021/07/09 00:24:07;;;;;;;17.50;16.60;;;17.70;92.00;;;;;;5114445;27;20937;-70
2021/07/09 00:26:35;;;;;;;17.93;16.60;;;17.70;91.90;;;;;;5109896;28;20444;-71
2021/07/09 00:29:04;;;;;;;17.20;15.93;;;17.70;91.70;;;;;;5111899;27;20463;-70
2021/07/09 00:31:34;;;;;;;17.00;16.20;;;17.70;91.60;;;;;;5108544;28;21083;-71
2021/07/09 00:34:05;;;;;;;17.60;16.60;;;17.80;91.70;;;;;;5108316;27;20472;-70
2021/07/09 00:36:32;;;;;;;17.50;16.50;;;17.80;91.60;;;;;;5107602;27;20498;-70
2021/07/09 00:39:00;;;;;;;18.30;17.07;;;17.70;91.60;;;;;;5109250;27;20568;-70
2021/07/09 00:41:27;;;;;;;16.77;15.97;;;17.80;91.70;;;;;;5108935;28;20474;-70
2021/07/09 00:43:54;;;;;;;17.73;16.40;;;17.80;91.70;;;;;;5109763;27;20432;-70
2021/07/09 00:46:32;;;;;;;16.77;15.97;;;17.80;91.30;;;;;;5108871;28;20556;-70
2021/07/09 00:48:59;;;;;;;17.67;16.63;;;17.70;91.70;;;;;;5108160;27;20451;-70
2021/07/09 00:51:26;;;;;;;17.90;16.90;;;17.70;91.80;;;;;;5109544;28;20439;-70
2021/07/09 00:53:53;;;;;;;17.30;16.30;;;17.70;92.00;;;;;;5107216;27;20488;-70
2021/07/09 00:56:21;;;;;;;18.10;16.70;;;17.60;92.40;;;;;;5108654;27;20903;-70
2021/07/09 00:58:49;;;;;;;18.53;17.43;;;17.70;92.30;;;;;;5105972;28;20819;-70
2021/07/09 01:01:16;;;;;;;17.23;16.33;;;17.70;92.00;;;;;;5109291;28;20826;-70
2021/07/09 01:03:45;;;;;;;17.80;16.90;;;17.60;92.40;;;;;;5105015;27;20467;-70
2021/07/09 01:06:13;;;;;;;17.40;16.40;;;17.40;92.70;;;;;;5118899;27;20471;-70
2021/07/09 01:08:40;;;;;;;17.50;16.60;;;17.30;93.50;;;;;;5113600;27;20521;-70
2021/07/09 01:11:07;;;;;;;17.40;16.60;;;17.40;93.40;;;;;;5108015;27;20460;-70
2021/07/09 01:13:34;;;;;;;18.00;17.10;;;17.30;92.90;;;;;;5105947;27;20516;-70
2021/07/09 01:16:01;;;;;;;18.30;16.80;;;17.40;92.70;;;;;;5109365;28;20480;-70
2021/07/09 01:18:28;;;;;;;18.87;17.87;;;17.40;92.50;;;;;;5106066;28;20464;-71
2021/07/09 01:20:57;;;;;;;18.73;17.60;;;17.40;93.00;;;;;;5109043;28;20459;-70
2021/07/09 01:23:28;;;;;;;17.90;17.00;;;17.40;92.80;;;;;;5105338;28;20464;-70
2021/07/09 01:25:57;;;;;;;18.40;17.30;;;17.30;93.00;;;;;;5106175;28;20502;-70
2021/07/09 01:28:24;;;;;;;18.40;17.50;;;17.20;92.50;;;;;;5097306;28;20472;-70
2021/07/09 01:30:52;;;;;;;18.50;17.33;;;17.10;92.90;;;;;;5097625;28;20462;-70
2021/07/09 01:33:18;;;;;;;18.53;17.53;;;17.10;93.50;;;;;;5105787;28;20475;-70
2021/07/09 01:35:45;;;;;;;18.33;17.33;;;17.10;93.20;;;;;;5107837;28;20483;-70
2021/07/09 01:38:12;;;;;;;18.90;17.90;;;17.20;92.70;;;;;;5108980;28;20463;-70
2021/07/09 01:40:41;;;;;;;18.70;17.50;;;17.10;92.80;;;;;;5106571;28;20456;-70
2021/07/09 01:43:09;;;;;;;18.47;17.37;;;17.10;93.10;;;;;;5101941;28;21120;-70
2021/07/09 01:45:37;;;;;;;18.67;17.70;;;17.20;92.50;;;;;;5107955;28;20559;-70
2021/07/09 01:48:05;;;;;;;18.30;17.40;;;17.20;92.50;;;;;;5108567;28;20456;-70
2021/07/09 01:50:33;;;;;;;18.43;17.43;;;17.20;92.60;;;;;;5105456;28;20492;-70
2021/07/09 01:53:01;;;;;;;18.80;17.80;;;17.30;92.00;;;;;;5107317;28;20462;-70
2021/07/09 01:55:28;;;;;;;17.63;16.73;;;17.30;91.90;;;;;;5108344;28;20491;-70
2021/07/09 01:57:55;;;;;;;18.00;17.00;;;17.30;92.30;;;;;;5107610;28;20460;-70
2021/07/09 02:00:25;;;;;;;19.00;17.67;;;17.30;92.40;;;;;;5107273;28;20458;-70
2021/07/09 02:02:52;;;;;;;17.57;16.57;;;17.30;91.80;;;;;;5107206;28;20449;-70
2021/07/09 02:05:21;;;;;;;17.00;16.20;;;17.20;92.00;;;;;;5108064;28;20850;-70
2021/07/09 02:07:50;;;;;;;16.77;15.97;;;17.20;92.00;;;;;;5092697;28;20471;-70
2021/07/09 02:10:19;;;;;;;17.20;16.30;;;17.30;92.20;;;;;;5110647;28;20559;-70
2021/07/09 02:12:49;;;;;;;17.83;16.90;;;17.20;92.20;;;;;;5105293;28;20469;-70
2021/07/09 02:15:17;;;;;;;17.80;16.70;;;17.30;92.40;;;;;;5103826;28;20476;-71
2021/07/09 02:17:46;;;;;;;17.40;16.37;;;17.30;92.30;;;;;;5103351;28;20448;-70
2021/07/09 02:20:16;;;;;;;17.70;16.70;;;17.40;91.60;;;;;;5103747;28;20453;-70
2021/07/09 02:22:43;;;;;;;16.90;16.13;;;17.20;91.90;;;;;;5106573;28;20466;-70
2021/07/09 02:25:12;;;;;;;17.83;16.93;;;17.20;92.20;;;;;;5111915;28;20475;-70
2021/07/09 02:27:40;;;;;;;18.30;17.20;;;17.30;92.00;;;;;;5105212;28;20577;-70
2021/07/09 02:30:09;;;;;;;17.80;16.90;;;17.30;91.80;;;;;;5107806;28;21027;-70
2021/07/09 02:32:36;;;;;;;16.63;15.93;;;17.30;92.10;;;;;;5096714;28;20456;-70
2021/07/09 02:35:06;;;;;;;17.60;16.60;;;17.30;92.20;;;;;;5105389;28;20577;-70
2021/07/09 02:37:33;;;;;;;18.17;17.37;;;17.20;92.20;;;;;;5110861;27;20448;-70
2021/07/09 02:40:00;;;;;;;17.00;16.13;;;17.20;92.00;;;;;;5110485;27;20541;-70
2021/07/09 02:42:27;;;;;;;17.33;16.30;;;17.20;92.30;;;;;;5107724;27;20456;-70
2021/07/09 02:44:54;;;;;;;16.63;15.83;;;17.20;92.60;;;;;;5104714;27;20995;-70
2021/07/09 02:47:21;;;;;;;17.23;16.33;;;17.20;92.30;;;;;;5109635;27;20456;-70
2021/07/09 02:49:48;;;;;;;17.40;16.27;;;17.20;92.40;;;;;;5112142;27;20546;-70
2021/07/09 02:52:16;;;;;;;17.37;16.10;;;17.20;92.60;;;;;;5116411;27;20463;-70
2021/07/09 02:54:44;;;;;;;20.80;19.70;;;17.20;92.40;;;;;;5111955;27;20491;-70
2021/07/09 02:57:10;;;;;;;17.43;16.63;;;17.20;92.40;;;;;;5103032;27;20480;-70
2021/07/09 02:59:37;;;;;;;17.30;16.40;;;17.20;92.40;;;;;;5114767;27;20540;-70
2021/07/09 03:02:04;;;;;;;17.40;16.30;;;17.20;91.90;;;;;;5110040;27;20452;-70
2021/07/09 03:04:31;;;;;;;19.83;18.83;;;17.20;92.00;;;;;;5111270;27;20476;-70
2021/07/09 03:06:58;;;;;;;17.60;16.70;;;17.10;92.00;;;;;;5100206;27;20561;-70
2021/07/09 03:09:26;;;;;;;21.07;20.03;;;17.20;92.10;;;;;;5111100;27;20463;-70
2021/07/09 03:11:53;;;;;;;20.10;18.87;;;17.10;92.10;;;;;;5113956;27;20478;-70
2021/07/09 03:14:20;;;;;;;17.00;16.13;;;17.20;92.10;;;;;;5113559;27;20570;-70
2021/07/09 03:16:47;;;;;;;18.27;17.37;;;17.20;91.60;;;;;;5109552;27;20458;-70
2021/07/09 03:19:14;;;;;;;19.20;18.07;;;17.10;91.30;;;;;;5108823;27;20543;-70
2021/07/09 03:21:41;;;;;;;21.13;19.90;;;17.10;91.90;;;;;;5107434;28;20937;-70
2021/07/09 03:24:08;;;;;;;18.13;17.10;;;17.20;91.50;;;;;;5109932;27;20459;-70
2021/07/09 03:26:36;;;;;;;18.77;17.87;;;17.20;91.70;;;;;;5110903;27;20460;-70
2021/07/09 03:29:04;;;;;;;20.23;18.73;;;17.20;91.60;;;;;;5119036;27;20520;-70
2021/07/09 03:31:33;;;;;;;18.40;17.50;;;17.20;91.40;;;;;;5103316;27;20461;-70
2021/07/09 03:34:00;;;;;;;19.07;18.00;;;17.00;91.80;;;;;;5113120;27;20470;-70
2021/07/09 03:36:27;;;;;;;19.10;18.20;;;17.00;91.80;;;;;;5109384;27;20984;-70
2021/07/09 03:38:55;;;;;;;19.27;18.27;;;17.10;92.10;;;;;;5108947;27;20456;-70
2021/07/09 03:41:23;;;;;;;19.80;18.70;;;17.00;91.80;;;;;;5099724;27;20472;-70
2021/07/09 03:43:51;;;;;;;19.83;18.80;;;17.00;91.90;;;;;;5108109;27;20460;-70
2021/07/09 03:46:18;;;;;;;19.00;18.00;;;17.00;92.00;;;;;;5107257;27;20475;-70
2021/07/09 03:48:45;;;;;;;18.90;17.80;;;17.00;92.10;;;;;;5110889;27;20580;-70
2021/07/09 03:51:12;;;;;;;18.63;17.60;;;17.10;91.70;;;;;;5105325;27;20457;-70
2021/07/09 03:53:39;;;;;;;19.00;17.77;;;17.10;91.20;;;;;;5105670;27;20978;-70
2021/07/09 03:56:06;;;;;;;19.43;18.43;;;17.00;91.50;;;;;;5106009;27;20487;-70
2021/07/09 03:58:33;;;;;;;19.97;18.87;;;17.00;91.40;;;;;;5108616;27;20531;-70
2021/07/09 04:01:02;;;;;;;18.60;17.60;;;17.00;91.80;;;;;;5107254;27;20464;-70
2021/07/09 04:03:29;;;;;;;19.40;18.27;;;17.00;91.80;;;;;;5108715;27;20445;-70
2021/07/09 04:05:55;;;;;;;19.23;18.13;;;17.00;91.10;;;;;;5107697;28;20464;-70
2021/07/09 04:08:23;;;;;;;19.13;17.93;;;16.80;91.90;;;;;;5110803;27;20456;-70
2021/07/09 04:10:49;;;;;;;19.47;18.37;;;16.80;92.30;;;;;;5107878;27;20459;-70
2021/07/09 04:13:16;;;;;;;21.20;20.10;;;16.80;92.30;;;;;;5116323;27;20447;-70
2021/07/09 04:15:43;;;;;;;20.60;19.27;;;16.80;91.80;;;;;;5113780;27;20482;-69
2021/07/09 04:18:11;;;;;;;19.03;17.93;;;16.90;91.70;;;;;;5107731;27;20481;-70
2021/07/09 04:20:39;;;;;;;18.80;17.80;;;16.90;91.40;;;;;;5108625;27;20453;-70
2021/07/09 04:23:05;;;;;;;20.10;18.97;;;16.90;91.80;;;;;;5116448;27;20462;-70
2021/07/09 04:25:32;;;;;;;18.70;17.70;;;16.90;91.50;;;;;;5111406;27;20476;-70
2021/07/09 04:27:59;;;;;;;18.27;17.20;;;16.90;91.70;;;;;;5107816;28;20471;-70
2021/07/09 04:30:27;;;;;;;17.50;16.60;;;17.00;91.30;;;;;;5110220;28;20464;-70
2021/07/09 04:32:54;;;;;;;19.33;18.33;;;17.00;91.00;;;;;;5106080;27;20460;-70
2021/07/09 04:35:22;;;;;;;17.77;16.60;;;16.90;91.10;;;;;;5117368;27;20557;-70
2021/07/09 04:37:49;;;;;;;17.50;16.60;;;16.90;91.50;;;;;;5107513;27;20460;-70
2021/07/09 04:40:17;;;;;;;21.23;19.93;;;17.00;91.00;;;;;;5108448;27;20463;-74
2021/07/09 04:42:45;;;;;;;16.90;16.00;;;16.90;91.40;;;;;;5103115;28;20544;-70
2021/07/09 04:45:12;;;;;;;18.50;17.50;;;16.80;92.00;;;;;;5110261;28;21003;-70
2021/07/09 04:47:39;;;;;;;18.53;17.53;;;16.80;91.80;;;;;;5100932;27;20449;-70
2021/07/09 04:50:07;;;;;;;19.53;18.33;;;16.80;92.20;;;;;;5100247;28;20451;-70
2021/07/09 04:52:36;;;;;;;19.07;17.90;;;16.80;92.40;;;;;;5101799;28;20448;-70
2021/07/09 04:55:04;;;;;;;18.77;17.57;;;16.80;92.40;;;;;;5108126;28;20582;-70
2021/07/09 04:57:30;;;;;;;17.70;16.70;;;16.80;92.30;;;;;;5096905;27;20460;-70
2021/07/09 04:59:57;;;;;;;19.90;18.80;;;16.80;92.10;;;;;;5101428;28;20449;-70
2021/07/09 05:02:25;;;;;;;19.97;18.40;;;16.90;91.80;;;;;;5097631;28;20452;-70
2021/07/09 05:04:52;;;;;;;18.53;17.50;;;17.00;91.40;;;;;;5102764;28;20464;-70
2021/07/09 05:07:19;;;;;;;20.23;19.00;;;17.00;91.40;;;;;;5099522;28;20460;-70
2021/07/09 05:09:50;;;;;;;19.90;18.90;;;17.00;91.10;;;;;;5107742;28;20448;-70
2021/07/09 05:12:17;;;;;;;17.80;16.90;;;17.10;90.80;;;;;;5099403;28;20487;-70
2021/07/09 05:14:44;;;;;;;18.77;17.77;;;17.00;90.80;;;;;;5111873;27;20548;-70
2021/07/09 05:17:11;;;;;;;19.07;18.07;;;17.10;91.00;;;;;;5103585;27;20467;-70
2021/07/09 05:19:38;;;;;;;18.13;17.33;;;17.10;90.70;;;;;;5108293;28;20458;-70
2021/07/09 05:22:05;;;;;;;18.80;17.80;;;17.10;90.90;;;;;;5102305;28;20533;-70
2021/07/09 05:24:32;;;;;;;19.73;18.43;;;17.10;90.90;;;;;;5106610;28;20547;-69
2021/07/09 05:27:00;;;;;;;18.33;17.33;;;17.10;90.80;;;;;;5111742;28;20498;-73
2021/07/09 05:29:27;;;;;;;19.07;18.17;;;17.00;90.60;;;;;;5121835;27;20558;-70
2021/07/09 05:31:54;;;;;;;19.80;18.47;;;17.00;91.50;;;;;;5100349;28;20467;-70
2021/07/09 05:34:21;;;;;;;19.73;18.73;;;16.90;91.50;;;;;;5102411;28;20453;-71
2021/07/09 05:36:48;;;;;;;17.20;16.40;;;16.90;91.60;;;;;;5099342;28;20456;-70
2021/07/09 05:39:16;;;;;;;18.73;17.83;;;17.00;91.40;;;;;;5109656;28;20894;-70
2021/07/09 05:41:43;;;;;;;19.27;18.27;;;17.00;91.30;;;;;;5098686;28;20457;-71
2021/07/09 05:44:11;;;;;;;17.83;16.93;;;17.00;90.80;;;;;;5097501;28;20464;-71
2021/07/09 05:46:39;;;;;;;19.77;18.67;;;17.00;91.00;;;;;;5102868;28;20509;-70
2021/07/09 05:49:06;;;;;;;18.60;17.70;;;17.00;90.80;;;;;;5104415;28;20514;-70
2021/07/09 05:51:33;;;;;;;19.67;18.67;;;17.10;90.80;;;;;;5100975;28;20512;-70
2021/07/09 05:54:00;;;;;;;19.80;18.60;;;17.10;91.20;;;;;;5113994;28;21032;-70
2021/07/09 05:56:27;;;;;;;18.23;17.33;;;17.20;90.80;;;;;;5110356;28;20987;-73
2021/07/09 05:58:54;;;;;;;19.60;18.60;;;17.20;90.70;;;;;;5108166;28;20823;-71
2021/07/09 06:01:23;;;;;;;18.07;17.17;;;17.20;90.80;;;;;;5100709;28;20458;-72
2021/07/09 06:03:49;;;;;;;19.27;18.27;;;17.30;90.50;;;;;;5117604;28;20455;-71
2021/07/09 06:06:16;;;;;;;18.80;17.80;;;17.30;90.40;;;;;;5114352;28;21091;-72
2021/07/09 06:08:43;;;;;;;19.47;18.30;;;17.40;90.50;;;;;;5109447;28;20527;-70
2021/07/09 06:11:10;;;;;;;18.90;18.00;;;17.30;90.40;;;;;;5108564;28;20462;-71
2021/07/09 06:13:37;;;;;;;19.50;18.50;;;17.30;90.70;;;;;;5112421;27;20986;-71
2021/07/09 06:16:05;;;;;;;20.03;18.63;;;17.30;91.10;;;;;;5115219;27;20488;-70
2021/07/09 06:18:33;;;;;;;19.33;18.33;;;17.40;90.60;;;;;;5112402;27;20528;-70
2021/07/09 06:21:00;;;;;;;18.80;17.80;;;17.50;90.90;;;;;;5108765;27;20570;-70
2021/07/09 06:23:28;;;;;;;20.00;18.90;;;17.50;91.20;;;;;;5117223;27;20990;-70
2021/07/09 06:25:55;;;;;;;19.27;18.27;;;17.60;91.20;;;;;;5108821;28;20511;-70
2021/07/09 06:28:22;;;;;;;18.73;17.73;;;17.70;90.90;;;;;;5114950;27;20439;-70
2021/07/09 06:30:49;;;;;;;19.50;18.50;;;17.70;90.50;;;;;;5108999;27;21109;-70
2021/07/09 06:33:16;;;;;;;19.80;18.70;;;17.70;90.00;;;;;;5108584;27;20462;-70
2021/07/09 06:35:44;;;;;;;19.40;18.40;;;17.70;91.30;;;;;;5112221;27;20482;-70
2021/07/09 06:38:11;;;;;;;18.73;17.17;;;17.70;90.80;;;;;;5110539;27;20973;-70
2021/07/09 06:40:39;;;;;;;19.20;18.30;;;17.80;90.60;;;;;;5113107;27;20470;-70
2021/07/09 06:43:06;;;;;;;20.93;19.63;;;17.80;90.10;;;;;;5105046;28;20462;-70
2021/07/09 06:45:33;;;;;;;18.57;17.57;;;17.90;89.30;;;;;;5105084;28;20464;-70
2021/07/09 06:48:02;;;;;;;19.37;18.20;;;18.00;89.10;;;;;;5116992;27;20829;-70
2021/07/09 06:50:29;;;;;;;18.70;17.80;;;18.00;88.70;;;;;;5114811;27;20466;-71
2021/07/09 06:52:57;;;;;;;19.17;18.17;;;18.00;89.20;;;;;;5107499;27;20456;-69
2021/07/09 06:55:24;;;;;;;21.27;19.87;;;18.00;88.70;;;;;;5108625;27;20472;-72
2021/07/09 06:57:51;;;;;;;19.20;18.20;;;18.10;88.40;;;;;;5099942;27;20484;-70
2021/07/09 07:00:19;;;;;;;19.43;18.33;;;18.20;88.80;;;;;;5108805;28;20459;-70
2021/07/09 07:02:47;;;;;;;19.17;18.07;;;18.20;88.40;;;;;;5110319;27;20840;-68
2021/07/09 07:05:15;;;;;;;20.23;19.13;;;18.30;88.10;;;;;;5104394;28;20464;-70
2021/07/09 07:07:42;;;;;;;21.10;20.00;;;18.40;87.50;;;;;;5107751;28;20452;-74
2021/07/09 07:10:14;;;;;;;20.03;19.03;;;18.50;87.50;;;;;;5110296;28;20977;-72
2021/07/09 07:12:41;;;;;;;20.10;18.90;;;18.60;87.20;;;;;;5107908;28;20457;-71
2021/07/09 07:15:10;;;;;;;20.23;19.17;;;18.70;87.10;;;;;;5110225;27;20476;-70
2021/07/09 07:17:38;;;;;;;22.77;21.40;;;18.90;86.50;;;;;;5102661;27;20475;-70
2021/07/09 07:20:07;;;;;;;21.50;20.23;;;19.00;86.00;;;;;;5109123;27;20452;-70
2021/07/09 07:22:34;;;;;;;21.53;20.40;;;19.20;85.90;;;;;;5107144;27;20455;-70
2021/07/09 07:25:01;;;;;;;21.73;20.43;;;19.30;85.60;;;;;;5113437;27;20467;-73
2021/07/09 07:27:29;;;;;;;22.30;20.90;;;19.50;85.30;;;;;;5109714;27;21281;-73
2021/07/09 07:29:58;;;;;;;24.17;22.77;;;19.60;84.40;;;;;;5104907;27;20464;-74
2021/07/09 07:32:26;;;;;;;22.70;21.50;;;19.70;84.30;;;;;;5107270;27;20448;-71
2021/07/09 07:34:53;;;;;;;23.27;22.07;;;19.90;83.10;;;;;;5106269;27;21028;-72
2021/07/09 07:37:21;;;;;;;23.00;21.73;;;19.90;83.60;;;;;;5109448;27;20803;-71
2021/07/09 07:39:47;;;;;;;22.67;21.37;;;20.00;83.10;;;;;;5100767;27;20457;-71
2021/07/09 07:42:15;;;;;;;24.27;23.07;;;20.20;82.90;;;;;;5102279;28;20457;-70
2021/07/09 07:44:43;;;;;;;24.43;23.03;;;20.30;82.30;;;;;;5104547;27;20477;-72
2021/07/09 07:47:11;;;;;;;25.00;23.23;;;20.30;82.20;;;;;;5096189;27;20456;-71
2021/07/09 07:49:38;;;;;;;25.40;24.00;;;20.30;82.20;;;;;;5097253;28;20452;-70
2021/07/09 07:52:05;;;;;;;23.80;22.50;;;20.40;81.60;;;;;;5097410;27;20465;-70
2021/07/09 07:54:31;;;;;;;24.40;23.10;;;20.50;81.40;;;;;;5103303;27;21009;-70
2021/07/09 07:56:59;;;;;;;25.20;23.80;;;20.60;80.80;;;;;;5102984;27;20479;-71
2021/07/09 07:59:28;;;;;;;26.00;24.20;;;20.70;80.50;;;;;;5106582;28;20492;-70
2021/07/09 08:01:57;;;;;;;27.00;25.60;;;20.70;80.80;;;;;;5106936;27;20470;-70
2021/07/09 08:04:23;;;;;;;25.70;24.20;;;20.70;80.60;;;;;;5107470;27;21009;-71
2021/07/09 08:06:51;;;;;;;27.03;25.53;;;20.80;80.70;;;;;;5108623;27;20736;-70
2021/07/09 08:09:17;;;;;;;27.47;26.03;;;20.80;80.30;;;;;;5104038;28;20468;-70
2021/07/09 08:11:44;;;;;;;25.50;24.20;;;20.90;79.90;;;;;;5106251;27;20456;-70
2021/07/09 08:14:11;;;;;;;25.80;24.40;;;20.70;79.60;;;;;;5109682;28;20452;-71
2021/07/09 08:16:38;;;;;;;27.20;25.70;;;20.70;80.30;;;;;;5103726;27;20486;-70
2021/07/09 08:19:06;;;;;;;25.90;24.50;;;20.80;79.90;;;;;;5108428;28;20539;-70
2021/07/09 08:21:33;;;;;;;27.73;26.23;;;21.00;79.50;;;;;;5096067;28;20463;-71
2021/07/09 08:24:00;;;;;;;26.90;25.30;;;20.90;78.40;;;;;;5104052;28;20480;-71
2021/07/09 08:26:27;;;;;;;27.17;25.57;;;20.90;79.10;;;;;;5099634;28;20576;-72
2021/07/09 08:28:55;;;;;;;28.40;26.50;;;21.00;78.60;;;;;;5093598;28;20552;-72
2021/07/09 08:31:23;;;;;;;29.53;27.90;;;21.30;77.60;;;;;;5104300;27;20467;-72
2021/07/09 08:33:51;;;;;;;27.40;25.90;;;21.10;74.80;;;;;;5101110;28;20452;-71
2021/07/09 08:36:19;;;;;;;28.37;26.87;;;20.80;78.00;;;;;;5097920;28;21278;-71
2021/07/09 08:38:46;;;;;;;27.80;26.20;;;20.90;78.30;;;;;;5104514;28;20456;-71
2021/07/09 08:41:14;;;;;;;26.80;25.40;;;21.20;78.00;;;;;;5106322;28;20463;-71
2021/07/09 08:43:41;;;;;;;27.00;25.40;;;21.50;77.10;;;;;;5105642;28;20448;-72
2021/07/09 08:46:08;;;;;;;29.40;27.80;;;21.80;75.70;;;;;;5100140;27;20483;-71
2021/07/09 08:48:36;;;;;;;27.23;25.73;;;22.00;75.30;;;;;;5090172;27;20457;-71
2021/07/09 08:51:04;;;;;;;29.20;27.63;;;22.10;73.90;;;;;;5105839;28;20584;-70
2021/07/09 08:53:32;;;;;;;29.50;27.80;;;22.20;72.70;;;;;;5109368;27;20452;-72
2021/07/09 08:56:00;;;;;;;29.97;28.20;;;22.30;71.90;;;;;;5098327;27;20472;-72
2021/07/09 08:58:27;;;;;;;28.43;26.73;;;22.50;71.70;;;;;;5108519;28;20461;-72
2021/07/09 09:00:55;;;;;;;30.30;28.40;;;22.20;71.80;;;;;;5106681;28;20491;-71
2021/07/09 09:03:24;;;;;;;32.53;31.03;;;22.00;73.30;;;;;;5109385;28;20487;-71
2021/07/09 09:05:52;;;;;;;29.57;27.77;;;22.20;73.10;;;;;;5103757;28;20472;-72
2021/07/09 09:08:21;;;;;;;30.90;29.27;;;22.60;72.60;;;;;;5111944;27;20452;-72
2021/07/09 09:10:51;;;;;;;29.33;27.73;;;22.90;71.40;;;;;;5110723;27;20863;-72
2021/07/09 09:13:19;;;;;;;31.10;29.30;;;23.10;70.80;;;;;;5111138;27;20477;-72
2021/07/09 09:15:57;;;;;;;33.47;31.70;;;23.40;70.20;;;;;;5111951;27;21206;-72
2021/07/09 09:18:26;;;;;;;29.40;27.87;;;23.50;69.40;;;;;;5128362;27;20457;-72
2021/07/09 09:21:01;;;;;;;31.30;29.50;;;23.60;68.90;;;;;;5109443;27;20467;-72
2021/07/09 09:23:29;;;;;;;34.43;32.83;;;23.70;68.40;;;;;;5097793;27;20990;-72
2021/07/09 09:25:58;;;;;;;30.77;29.07;;;23.80;68.20;;;;;;5100793;28;20551;-72
2021/07/09 09:28:29;;;;;;;31.13;29.43;;;23.90;67.50;;;;;;5114015;27;20447;-72
2021/07/09 09:30:57;;;;;;;31.13;29.43;;;23.20;68.60;;;;;;5095244;28;20468;-71
2021/07/09 09:33:32;;;;;;;30.83;29.13;;;22.70;69.00;;;;;;5104278;28;20939;-71
2021/07/09 09:35:59;;;;;;;30.30;28.40;;;22.00;70.60;;;;;;5096770;28;21071;-70
2021/07/09 09:38:28;;;;;;;30.23;28.17;;;22.00;71.40;;;;;;5103113;28;20463;-70
2021/07/09 09:40:59;;;;;;;29.20;27.60;;;21.80;72.10;;;;;;5103587;27;20464;-69
2021/07/09 09:43:28;;;;;;;31.90;30.03;;;21.80;72.30;;;;;;5105211;28;20478;-69
2021/07/09 09:46:00;;;;;;;34.30;32.30;;;22.20;71.40;;;;;;5099746;28;20472;-71
2021/07/09 09:48:39;;;;;;;32.20;30.20;;;22.60;69.50;;;;;;5109994;28;20866;-71
2021/07/09 09:51:28;;;;;;;33.00;31.20;;;22.40;69.60;;;;;;5098459;27;20460;-71
2021/07/09 09:53:57;;;;;;;29.20;27.40;;;22.10;71.10;;;;;;5098917;28;20456;-71
2021/07/09 09:56:36;;;;;;;29.60;27.90;;;22.20;69.30;;;;;;5105266;27;20490;-71
2021/07/09 09:59:21;;;;;;;31.67;29.77;;;21.80;70.90;;;;;;5105684;27;20488;-71
2021/07/09 10:01:54;;;;;;;33.27;31.07;;;21.80;70.90;;;;;;5103319;28;20459;-71
2021/07/09 10:04:22;;;;;;;31.37;29.27;;;21.70;69.70;;;;;;5103385;28;20475;-72
2021/07/09 10:06:49;;;;;;;31.20;29.40;;;21.70;70.20;;;;;;5095919;28;20467;-71
2021/07/09 10:09:17;;;;;;;35.03;32.70;;;21.60;70.20;;;;;;5108219;28;20462;-71
2021/07/09 10:11:47;;;;;;;31.03;29.20;;;21.90;70.50;;;;;;5107886;27;20452;-71
2021/07/09 10:14:16;;;;;;;30.83;29.03;;;22.00;69.50;;;;;;5104997;27;20470;-72
2021/07/09 10:16:46;;;;;;;36.10;34.40;;;21.40;71.40;;;;;;5108631;27;20467;-71
2021/07/09 10:19:19;;;;;;;31.53;29.73;;;21.30;71.90;;;;;;5114754;27;20929;-71
2021/07/09 10:21:46;;;;;;;32.00;30.20;;;21.60;71.50;;;;;;5111608;28;20483;-71
2021/07/09 10:24:17;;;;;;;34.63;32.73;;;21.80;71.00;;;;;;5109748;27;20579;-70
2021/07/09 10:26:53;;;;;;;30.07;28.17;;;22.00;70.30;;;;;;5122870;27;20733;-71
2021/07/09 10:29:22;;;;;;;31.77;29.67;;;22.30;69.50;;;;;;5115205;27;20463;-71
2021/07/09 10:31:50;;;;;;;30.43;28.73;;;22.50;69.10;;;;;;5100359;28;20459;-72
2021/07/09 10:34:34;;;;;;;33.50;31.47;;;22.60;69.00;;;;;;5113517;27;20448;-72
2021/07/09 10:37:03;;;;;;;31.80;30.00;;;22.40;68.50;;;;;;5092118;28;20480;-72
2021/07/09 10:39:39;;;;;;;36.67;34.70;;;21.50;70.40;;;;;;5107380;27;20448;-72
2021/07/09 10:42:27;;;;;;;32.50;30.50;;;21.40;71.80;;;;;;5113359;27;20854;-71
2021/07/09 10:45:04;;;;;;;35.70;33.60;;;21.30;72.60;;;;;;5109046;27;20550;-71
2021/07/09 10:47:46;;;;;;;35.73;33.37;;;21.60;71.70;;;;;;5124088;27;20442;-72
2021/07/09 10:50:15;;;;;;;36.20;33.97;;;21.80;70.80;;;;;;5108428;27;20456;-71
2021/07/09 10:52:58;;;;;;;34.67;32.40;;;21.80;70.70;;;;;;5112199;27;20546;-71
2021/07/09 10:55:44;;;;;;;35.73;33.53;;;22.30;70.00;;;;;;5106466;28;21027;-71
2021/07/09 10:58:32;;;;;;;33.20;31.30;;;22.40;68.90;;;;;;5097730;28;20486;-72
2021/07/09 11:01:09;;;;;;;37.07;34.67;;;22.90;68.60;;;;;;5104348;27;20462;-71
2021/07/09 11:03:39;;;;;;;36.23;34.13;;;23.30;67.00;;;;;;5112524;27;20950;-71
2021/07/09 11:06:08;;;;;;;33.60;31.70;;;23.10;63.80;;;;;;5106287;28;20534;-72
2021/07/09 11:08:53;;;;;;;34.83;32.53;;;23.00;64.80;;;;;;5112136;28;20465;-71
2021/07/09 11:11:31;;;;;;;35.77;33.47;;;22.90;66.80;;;;;;5106341;28;20638;-71
2021/07/09 11:14:04;;;;;;;33.43;31.40;;;22.80;66.10;;;;;;5112092;28;20451;-71
2021/07/09 11:16:35;;;;;;;35.27;33.07;;;22.50;67.10;;;;;;5109199;27;20487;-72
2021/07/09 11:19:14;;;;;;;33.57;31.57;;;22.50;66.10;;;;;;5113318;27;20448;-71
2021/07/09 11:22:02;;;;;;;35.00;32.90;;;22.80;66.10;;;;;;5109010;28;20463;-71
2021/07/09 11:24:31;;;;;;;33.90;31.90;;;22.80;65.10;;;;;;5110126;27;20464;-70
2021/07/09 11:26:59;;;;;;;34.93;32.83;;;22.60;66.30;;;;;;5129202;27;20446;-71
2021/07/09 11:29:45;;;;;;;35.47;33.10;;;22.40;65.60;;;;;;5116813;27;20474;-71
2021/07/09 11:32:14;;;;;;;34.50;32.10;;;22.10;67.70;;;;;;5099101;27;20488;-72
2021/07/09 11:34:43;;;;;;;35.10;32.97;;;22.10;68.20;;;;;;5101263;28;20586;-72
2021/07/09 11:37:12;;;;;;;36.40;34.20;;;21.80;69.40;;;;;;5119779;27;20467;-72
2021/07/09 11:39:40;;;;;;;38.40;36.00;;;21.80;70.40;;;;;;5125997;27;21449;-72
2021/07/09 11:42:10;;;;;;;35.17;32.97;;;22.00;71.60;;;;;;5110533;27;20972;-72
2021/07/09 11:44:41;;;;;;;35.90;33.70;;;22.40;71.80;;;;;;5119006;27;20472;-74
2021/07/09 11:47:13;;;;;;;35.37;32.93;;;23.00;71.10;;;;;;5125388;27;20436;-72
2021/07/09 11:49:42;;;;;;;35.60;33.30;;;23.30;67.10;;;;;;5110411;27;21033;-73
2021/07/09 11:52:11;;;;;;;34.00;32.00;;;23.60;67.30;;;;;;5107915;27;20456;-75
2021/07/09 11:54:40;;;;;;;34.70;32.50;;;24.00;65.80;;;;;;5110183;27;20482;-74
2021/07/09 11:57:10;;;;;;;36.00;33.70;;;24.20;66.40;;;;;;5102297;28;20983;-73
2021/07/09 11:59:38;;;;;;;38.73;36.53;;;24.20;64.50;;;;;;5101758;28;20487;-73
2021/07/09 12:02:18;;;;;;;36.37;34.17;;;23.90;64.70;;;;;;5110049;27;20452;-73
2021/07/09 12:04:50;;;;;;;35.87;33.77;;;23.50;65.60;;;;;;5103263;27;20471;-73
2021/07/09 12:07:36;;;;;;;37.80;35.50;;;23.00;67.30;;;;;;5101655;28;20543;-74
2021/07/09 12:10:09;;;;;;;39.23;36.80;;;23.10;67.90;;;;;;5094169;28;21058;-71
2021/07/09 12:12:39;;;;;;;36.53;34.03;;;23.10;67.90;;;;;;5107014;27;20456;-71
2021/07/09 12:15:12;;;;;;;36.37;33.73;;;23.10;66.30;;;;;;5106328;27;20473;-71
2021/07/09 12:17:43;;;;;;;39.10;36.57;;;22.80;65.70;;;;;;5117319;27;20478;-71
2021/07/09 12:20:13;;;;;;;36.63;34.23;;;23.00;66.40;;;;;;5112387;27;20466;-71
2021/07/09 12:22:42;;;;;;;37.17;34.87;;;22.80;67.50;;;;;;5118535;27;20484;-71
2021/07/09 12:25:14;;;;;;;39.17;36.87;;;22.90;67.30;;;;;;5106669;28;20563;-71
2021/07/09 12:27:42;;;;;;;37.20;34.70;;;23.20;67.40;;;;;;5108940;27;20794;-71
2021/07/09 12:30:11;;;;;;;37.17;34.80;;;23.40;66.90;;;;;;5107217;27;20849;-71
2021/07/09 12:32:55;;;;;;;36.03;33.83;;;23.50;66.80;;;;;;5116306;27;20456;-71
2021/07/09 12:35:23;;;;;;;35.10;33.00;;;23.60;67.00;;;;;;5097442;28;20468;-71
2021/07/09 12:38:02;;;;;;;36.93;34.70;;;23.50;66.70;;;;;;5094791;27;20473;-71